Time;durP1;ratioP1;P1;durP2;ratioP2;P2;SDS_P1;SDS_P2;PMS_P1;PMS_P2;Temp;Humidity;BMP_temperature;BMP_pressure;BME280_temperature;BME280_humidity;BME280_pressure;Samples;Min_cycle;Max_cycle;Signal;HPM_P1;HPM_P2
2022/06/22 00:00:21;;;;;;;3.83;3.63;;;23.20;76.90;;;;;;4939085;28;20198;-77
2022/06/22 00:02:50;;;;;;;5.55;4.15;;;23.20;76.90;;;;;;4972256;28;20662;-77
2022/06/22 00:05:38;;;;;;;4.38;4.13;;;23.20;77.20;;;;;;4968938;28;21783;-77
2022/06/22 00:08:11;;;;;;;4.82;4.60;;;23.10;78.10;;;;;;4970880;28;20592;-76
2022/06/22 00:10:47;;;;;;;4.45;4.13;;;23.10;77.00;;;;;;4957282;28;20680;-77
2022/06/22 00:13:25;;;;;;;5.82;4.82;;;23.10;78.00;;;;;;4967106;28;20703;-77
2022/06/22 00:15:57;;;;;;;4.22;3.80;;;23.00;77.40;;;;;;5046972;28;20202;-76
2022/06/22 00:18:42;;;;;;;4.30;4.10;;;23.10;77.40;;;;;;5046201;28;20569;-76
2022/06/22 00:21:17;;;;;;;4.70;4.18;;;23.00;77.80;;;;;;5050232;28;20233;-76
2022/06/22 00:23:46;;;;;;;4.07;3.80;;;23.00;78.30;;;;;;5057778;28;20186;-76
2022/06/22 00:26:24;;;;;;;4.43;4.13;;;23.00;77.30;;;;;;5050619;28;20183;-76
2022/06/22 00:29:04;;;;;;;4.55;4.15;;;23.00;77.60;;;;;;5042659;28;20207;-76
2022/06/22 00:31:48;;;;;;;5.00;4.00;;;23.00;77.20;;;;;;5054949;28;20210;-76
2022/06/22 00:34:23;;;;;;;4.88;4.55;;;23.00;77.20;;;;;;5055059;28;20241;-76
2022/06/22 00:36:57;;;;;;;4.60;4.30;;;23.00;77.00;;;;;;5051310;28;20215;-76
2022/06/22 00:39:28;;;;;;;4.95;4.57;;;23.00;77.10;;;;;;5054905;28;20178;-76
2022/06/22 00:41:56;;;;;;;4.43;4.15;;;23.00;77.10;;;;;;5042615;28;20190;-75
2022/06/22 00:44:25;;;;;;;4.53;4.15;;;23.00;77.20;;;;;;5046457;28;20179;-76
2022/06/22 00:47:07;;;;;;;4.97;4.32;;;23.00;77.00;;;;;;5053331;28;20218;-77
2022/06/22 00:49:35;;;;;;;4.80;4.40;;;23.00;76.30;;;;;;5051679;28;20187;-76
2022/06/22 00:52:06;;;;;;;4.63;4.32;;;22.90;76.90;;;;;;5052316;28;20180;-77
2022/06/22 00:54:35;;;;;;;5.05;4.65;;;22.90;76.40;;;;;;5047155;28;20254;-77
2022/06/22 00:57:19;;;;;;;5.30;4.85;;;22.90;76.70;;;;;;5052156;28;20267;-77
2022/06/22 00:59:51;;;;;;;6.70;4.57;;;22.90;76.50;;;;;;5048310;28;20183;-77
2022/06/22 01:02:39;;;;;;;5.47;4.43;;;22.90;77.00;;;;;;5048202;28;20209;-77
2022/06/22 01:05:31;;;;;;;4.55;4.22;;;23.00;77.50;;;;;;5048242;28;20249;-77
2022/06/22 01:08:18;;;;;;;6.20;4.88;;;23.00;77.30;;;;;;5049434;28;20196;-77
2022/06/22 01:10:52;;;;;;;5.13;4.85;;;23.00;77.80;;;;;;5055072;28;20274;-77
2022/06/22 01:13:30;;;;;;;5.47;4.60;;;23.00;77.30;;;;;;5055362;28;20299;-77
2022/06/22 01:16:00;;;;;;;3.88;3.72;;;23.10;77.90;;;;;;5050643;28;20626;-77
2022/06/22 01:18:31;;;;;;;5.07;4.75;;;23.00;77.50;;;;;;5050156;28;20191;-75
2022/06/22 01:21:22;;;;;;;4.95;4.63;;;23.00;78.00;;;;;;5046369;28;20186;-76
2022/06/22 01:24:25;;;;;;;5.28;4.53;;;23.00;78.20;;;;;;5053980;28;20206;-77
2022/06/22 01:27:21;;;;;;;4.80;4.57;;;23.00;77.60;;;;;;5051982;28;20262;-77
2022/06/22 01:29:53;;;;;;;4.85;4.65;;;23.00;79.00;;;;;;5053835;28;20245;-77
2022/06/22 01:32:42;;;;;;;4.53;4.32;;;23.00;78.30;;;;;;5050486;28;20190;-77
2022/06/22 01:35:31;;;;;;;4.95;4.75;;;23.00;78.20;;;;;;5051397;28;20184;-77
2022/06/22 01:37:57;;;;;;;7.00;4.78;;;23.00;78.90;;;;;;5044157;28;20216;-77
2022/06/22 01:40:45;;;;;;;5.20;4.70;;;23.00;78.10;;;;;;5052464;28;20244;-77
2022/06/22 01:43:24;;;;;;;6.05;4.40;;;23.00;78.10;;;;;;5051008;28;20229;-77
2022/06/22 01:46:07;;;;;;;4.88;4.40;;;23.00;79.10;;;;;;5050058;28;20262;-76
2022/06/22 01:48:44;;;;;;;5.15;4.68;;;23.00;78.00;;;;;;5041757;28;20198;-76
2022/06/22 01:51:22;;;;;;;4.82;4.35;;;23.00;77.80;;;;;;5051493;28;20183;-78
2022/06/22 01:54:01;;;;;;;4.88;4.47;;;23.00;78.00;;;;;;5040964;28;20257;-77
2022/06/22 01:56:29;;;;;;;4.45;4.18;;;23.00;78.10;;;;;;5042133;28;20223;-76
2022/06/22 01:59:18;;;;;;;5.03;4.82;;;23.00;78.00;;;;;;5046233;28;20800;-77
2022/06/22 02:02:22;;;;;;;5.07;4.32;;;23.00;78.60;;;;;;5049090;28;20214;-76
2022/06/22 02:04:48;;;;;;;5.57;4.95;;;22.90;77.90;;;;;;5044197;28;20274;-76
2022/06/22 02:07:44;;;;;;;4.93;4.53;;;22.90;78.40;;;;;;5050340;28;20282;-76
2022/06/22 02:10:23;;;;;;;5.85;5.40;;;22.90;79.00;;;;;;5051376;28;20187;-75
2022/06/22 02:13:24;;;;;;;6.60;4.78;;;22.90;79.30;;;;;;5043992;28;20630;-76
2022/06/22 02:16:08;;;;;;;5.57;5.28;;;22.90;79.70;;;;;;4928340;29;21082;-76
2022/06/22 02:18:49;;;;;;;5.68;5.20;;;22.80;79.70;;;;;;4929682;28;21005;-76
2022/06/22 02:21:17;;;;;;;6.43;5.32;;;22.70;79.90;;;;;;4922258;29;20320;-77
2022/06/22 02:23:46;;;;;;;5.53;5.13;;;22.70;79.60;;;;;;4926566;29;20225;-76
2022/06/22 02:26:26;;;;;;;8.43;5.20;;;22.70;80.30;;;;;;4927815;29;20278;-76
2022/06/22 02:28:52;;;;;;;9.18;5.20;;;22.60;80.60;;;;;;4934946;29;20219;-76
2022/06/22 02:31:20;;;;;;;5.82;5.20;;;22.50;81.10;;;;;;4924238;29;20285;-78
2022/06/22 02:33:48;;;;;;;7.80;5.32;;;22.50;81.20;;;;;;4927269;29;20249;-77
2022/06/22 02:36:14;;;;;;;5.28;4.82;;;22.40;81.50;;;;;;4929667;29;20215;-77
2022/06/22 02:38:43;;;;;;;5.88;5.38;;;22.40;81.90;;;;;;4935128;29;20202;-77
2022/06/22 02:46:42;;;;;;;7.97;5.72;;;22.30;81.50;;;;;;4939996;29;20285;-77
2022/06/22 02:49:18;;;;;;;5.63;5.28;;;22.20;81.70;;;;;;4937984;29;20193;-77
2022/06/22 02:51:46;;;;;;;5.82;5.43;;;22.20;80.70;;;;;;4973065;28;20758;-76
2022/06/22 02:54:25;;;;;;;5.88;5.38;;;22.20;82.00;;;;;;5046621;28;20587;-77
2022/06/22 02:56:59;;;;;;;5.70;5.30;;;22.10;81.20;;;;;;5043847;28;20229;-76
2022/06/22 02:59:25;;;;;;;7.03;5.50;;;22.00;82.70;;;;;;5047673;28;20275;-77
2022/06/22 03:01:51;;;;;;;7.30;6.65;;;22.00;81.60;;;;;;5047405;28;20274;-78
2022/06/22 03:04:17;;;;;;;5.90;5.32;;;22.10;81.60;;;;;;5046836;28;20277;-77
2022/06/22 03:06:48;;;;;;;7.05;6.13;;;22.10;81.60;;;;;;5044728;28;21032;-76
2022/06/22 03:09:15;;;;;;;5.53;5.22;;;22.10;81.00;;;;;;5051202;28;20191;-76
2022/06/22 03:11:45;;;;;;;6.22;5.65;;;22.10;81.00;;;;;;5045031;28;20180;-76
2022/06/22 03:14:36;;;;;;;7.10;5.22;;;22.10;81.00;;;;;;5040294;28;20187;-76
2022/06/22 03:17:05;;;;;;;7.68;4.80;;;22.10;80.70;;;;;;5049107;28;20207;-75
2022/06/22 03:19:43;;;;;;;8.40;5.72;;;22.00;80.60;;;;;;5048732;28;20280;-76
2022/06/22 03:22:28;;;;;;;8.00;6.00;;;22.00;80.30;;;;;;5043420;28;20199;-76
2022/06/22 03:24:58;;;;;;;6.53;5.85;;;22.00;80.60;;;;;;5043989;28;20642;-75
2022/06/22 03:27:30;;;;;;;5.45;5.05;;;22.00;80.70;;;;;;5043236;28;20176;-75
2022/06/22 03:30:00;;;;;;;6.10;5.70;;;22.00;80.50;;;;;;5048314;28;20203;-78
2022/06/22 03:32:40;;;;;;;5.70;5.32;;;22.10;82.30;;;;;;5052897;28;20647;-76
2022/06/22 03:35:24;;;;;;;6.90;5.97;;;22.10;81.60;;;;;;5051159;28;20222;-76
2022/06/22 03:37:56;;;;;;;9.05;6.13;;;22.10;81.80;;;;;;5054905;28;20707;-77
2022/06/22 03:40:30;;;;;;;5.95;5.45;;;22.10;82.70;;;;;;5050485;28;20187;-77
2022/06/22 03:43:02;;;;;;;6.22;5.00;;;22.00;83.20;;;;;;5049913;28;20211;-76
2022/06/22 03:45:32;;;;;;;6.20;5.70;;;21.90;83.90;;;;;;5055848;28;20351;-76
2022/06/22 03:48:24;;;;;;;6.13;5.28;;;21.80;84.40;;;;;;5052598;28;20260;-76
2022/06/22 03:51:22;;;;;;;6.40;5.82;;;21.80;84.40;;;;;;5005759;28;20263;-76
2022/06/22 03:54:14;;;;;;;10.98;6.25;;;21.80;84.60;;;;;;4947652;28;20194;-76
2022/06/22 03:56:48;;;;;;;9.48;6.25;;;21.70;84.20;;;;;;4905898;29;20824;-75
2022/06/22 03:59:14;;;;;;;6.13;5.63;;;21.70;84.60;;;;;;4909630;29;20661;-75
2022/06/22 04:01:40;;;;;;;6.00;5.40;;;21.50;84.90;;;;;;4907370;29;20332;-76
2022/06/22 04:04:07;;;;;;;7.30;5.97;;;21.50;86.00;;;;;;4907326;29;20328;-76
2022/06/22 04:06:40;;;;;;;6.32;5.90;;;21.40;86.00;;;;;;4907425;29;20193;-76
2022/06/22 04:09:12;;;;;;;7.07;6.07;;;21.40;85.80;;;;;;4913027;29;20603;-77
2022/06/22 04:11:54;;;;;;;6.68;5.85;;;21.40;86.50;;;;;;4908828;29;20263;-76
2022/06/22 04:15:08;;;;;;;6.93;6.32;;;21.30;86.80;;;;;;4908509;29;20246;-77
2022/06/22 04:17:41;;;;;;;9.10;6.18;;;21.30;87.30;;;;;;4851213;29;20268;-76
2022/06/22 04:20:18;;;;;;;6.90;5.95;;;21.30;86.20;;;;;;4869050;29;20194;-76
2022/06/22 04:22:49;;;;;;;5.88;5.43;;;21.40;87.60;;;;;;4868822;29;20993;-76
2022/06/22 04:25:32;;;;;;;6.20;5.20;;;21.50;86.80;;;;;;4870321;29;20194;-76
2022/06/22 04:28:02;;;;;;;7.07;6.47;;;21.50;87.00;;;;;;4881035;29;20946;-76
2022/06/22 04:30:35;;;;;;;6.45;5.90;;;21.60;86.90;;;;;;4896745;29;20203;-77
2022/06/22 04:33:22;;;;;;;8.25;5.80;;;21.60;85.70;;;;;;4948818;28;20683;-76
2022/06/22 04:36:04;;;;;;;8.40;6.00;;;21.80;86.10;;;;;;4991149;28;20237;-76
2022/06/22 04:38:35;;;;;;;6.63;6.00;;;21.80;86.70;;;;;;4987539;28;20206;-76
2022/06/22 04:41:07;;;;;;;5.85;5.45;;;21.80;87.20;;;;;;4988937;28;20590;-76
2022/06/22 04:43:35;;;;;;;6.20;5.78;;;21.80;87.00;;;;;;4977283;28;20273;-75
2022/06/22 04:46:01;;;;;;;6.95;6.28;;;21.90;86.00;;;;;;4984573;28;20332;-75
2022/06/22 04:48:37;;;;;;;7.53;5.70;;;22.00;86.40;;;;;;4986690;28;20206;-75
2022/06/22 04:51:04;;;;;;;7.05;6.35;;;22.00;85.30;;;;;;4992562;28;20191;-76
2022/06/22 04:53:38;;;;;;;5.53;5.13;;;22.10;85.80;;;;;;5002911;28;20676;-76
2022/06/22 04:56:09;;;;;;;6.43;5.88;;;22.20;86.30;;;;;;5050499;28;20218;-76
2022/06/22 04:58:47;;;;;;;5.47;5.07;;;22.30;86.10;;;;;;5047585;28;20187;-75
2022/06/22 05:01:37;;;;;;;6.43;5.47;;;22.40;84.50;;;;;;5046693;28;20633;-75
2022/06/22 05:04:13;;;;;;;7.35;5.72;;;22.60;84.60;;;;;;5043930;28;20737;-75
2022/06/22 05:07:01;;;;;;;6.00;5.43;;;22.70;83.80;;;;;;5054832;28;20194;-77
2022/06/22 05:09:53;;;;;;;5.63;5.22;;;22.70;84.60;;;;;;5046295;28;20171;-77
2022/06/22 05:12:22;;;;;;;5.40;4.97;;;22.80;84.40;;;;;;5007108;28;20293;-78
2022/06/22 05:14:50;;;;;;;5.28;5.05;;;22.90;84.10;;;;;;5031524;28;20692;-77
2022/06/22 05:17:30;;;;;;;5.97;5.47;;;23.00;82.90;;;;;;5018307;28;20258;-79
2022/06/22 05:20:13;;;;;;;5.93;5.43;;;23.10;83.50;;;;;;5025257;28;20585;-82
2022/06/22 05:22:38;;;;;;;5.43;5.03;;;23.20;83.20;;;;;;5031335;28;20199;-79
2022/06/22 05:25:10;;;;;;;6.22;5.82;;;23.30;82.80;;;;;;5030228;28;20187;-79
2022/06/22 05:28:07;;;;;;;6.00;5.50;;;23.40;82.50;;;;;;5025423;28;20196;-78
2022/06/22 05:30:39;;;;;;;6.05;5.65;;;23.40;82.60;;;;;;4961815;28;20202;-78
2022/06/22 05:33:10;;;;;;;6.10;5.55;;;23.50;81.40;;;;;;4960884;28;20205;-83
2022/06/22 05:35:44;;;;;;;6.57;5.97;;;23.60;81.30;;;;;;4962301;28;20954;-79
2022/06/22 05:38:10;;;;;;;6.63;6.07;;;23.70;80.90;;;;;;4959541;28;20234;-81
2022/06/22 05:40:39;;;;;;;5.82;5.43;;;23.80;81.20;;;;;;4960890;28;20198;-77
2022/06/22 05:43:06;;;;;;;5.40;4.97;;;23.80;81.30;;;;;;4960690;28;20205;-76
2022/06/22 05:45:39;;;;;;;5.43;5.15;;;23.80;81.10;;;;;;4961041;28;20182;-80
2022/06/22 05:48:06;;;;;;;8.30;5.90;;;23.80;81.50;;;;;;4961282;28;20202;-79
2022/06/22 05:50:36;;;;;;;6.35;5.95;;;23.90;80.70;;;;;;4972706;28;20309;-79
2022/06/22 05:53:27;;;;;;;5.60;5.30;;;24.00;80.70;;;;;;4981088;28;20185;-78
2022/06/22 05:56:05;;;;;;;6.47;5.88;;;24.10;79.90;;;;;;4981347;28;20850;-76
2022/06/22 05:58:51;;;;;;;6.20;5.80;;;24.20;80.00;;;;;;4981283;28;20205;-78
2022/06/22 06:01:59;;;;;;;7.32;6.63;;;24.30;79.90;;;;;;4980903;28;20252;-78
2022/06/22 06:04:40;;;;;;;7.45;5.60;;;24.40;80.10;;;;;;4974418;28;20236;-77
2022/06/22 06:07:16;;;;;;;6.47;5.95;;;24.50;79.60;;;;;;5013788;28;20195;-77
2022/06/22 06:09:42;;;;;;;6.18;5.68;;;24.50;80.00;;;;;;5030847;28;20192;-78
2022/06/22 06:12:24;;;;;;;6.72;6.22;;;24.50;79.80;;;;;;5035562;28;20206;-77
2022/06/22 06:14:52;;;;;;;6.03;5.45;;;24.60;80.10;;;;;;5032858;28;20196;-78
2022/06/22 06:17:38;;;;;;;6.88;6.30;;;24.70;79.30;;;;;;5066958;28;20554;-77
2022/06/22 06:20:14;;;;;;;7.00;6.40;;;24.80;79.40;;;;;;5038042;28;20171;-78
2022/06/22 06:22:40;;;;;;;7.05;6.55;;;24.80;79.00;;;;;;5042641;28;20297;-78
2022/06/22 06:28:04;;;;;;;6.15;5.72;;;24.90;79.30;;;;;;5043021;28;20719;-78
2022/06/22 06:30:35;;;;;;;6.20;5.70;;;25.00;79.50;;;;;;5039964;28;20644;-78
2022/06/22 06:33:34;;;;;;;9.20;6.43;;;25.00;80.00;;;;;;5042815;28;20580;-78
2022/06/22 06:36:16;;;;;;;5.88;5.47;;;25.00;80.30;;;;;;5019562;28;20266;-78
2022/06/22 06:38:59;;;;;;;7.13;6.32;;;25.10;79.10;;;;;;5023135;28;20246;-78
2022/06/22 06:42:03;;;;;;;7.00;6.28;;;25.00;80.30;;;;;;5019571;28;20260;-78
2022/06/22 06:44:41;;;;;;;7.07;6.13;;;25.00;80.10;;;;;;5019788;28;20211;-77
2022/06/22 06:47:15;;;;;;;7.50;6.90;;;25.00;79.80;;;;;;5019483;28;20239;-77
2022/06/22 06:50:02;;;;;;;10.70;6.65;;;25.10;79.60;;;;;;5019258;28;20176;-77
2022/06/22 06:52:43;;;;;;;7.15;5.82;;;25.20;79.70;;;;;;5019197;28;20196;-78
2022/06/22 06:55:17;;;;;;;8.52;6.20;;;25.30;80.60;;;;;;5019518;28;20199;-78
2022/06/22 06:57:56;;;;;;;7.47;6.70;;;25.30;80.10;;;;;;5009867;28;20605;-77
2022/06/22 07:00:22;;;;;;;6.93;6.32;;;25.30;79.70;;;;;;5019168;28;20832;-78
2022/06/22 07:02:48;;;;;;;7.15;6.65;;;25.40;79.40;;;;;;5019390;28;20184;-77
2022/06/22 07:05:16;;;;;;;7.72;6.25;;;25.50;79.50;;;;;;5020505;28;20192;-78
2022/06/22 07:07:58;;;;;;;7.13;6.35;;;25.50;79.30;;;;;;5023094;28;20534;-79
2022/06/22 07:10:31;;;;;;;6.70;6.10;;;25.50;79.30;;;;;;5023067;28;20210;-78
2022/06/22 07:13:00;;;;;;;7.53;6.25;;;25.70;79.80;;;;;;5037298;28;20332;-78
2022/06/22 07:15:34;;;;;;;6.85;6.25;;;25.70;79.10;;;;;;5045889;28;20282;-78
2022/06/22 07:18:04;;;;;;;6.80;6.30;;;25.80;78.80;;;;;;5044289;28;20302;-78
2022/06/22 07:20:36;;;;;;;6.55;6.07;;;25.90;78.70;;;;;;5045340;28;20559;-77
2022/06/22 07:23:33;;;;;;;6.70;6.15;;;26.00;79.10;;;;;;5046102;28;20279;-78
2022/06/22 07:26:08;;;;;;;8.45;6.38;;;26.10;78.60;;;;;;5043803;28;20265;-78
2022/06/22 07:28:49;;;;;;;6.50;6.00;;;26.20;78.40;;;;;;5045665;28;20183;-78
2022/06/22 07:31:30;;;;;;;7.38;6.78;;;26.40;77.90;;;;;;5046104;28;20665;-78
2022/06/22 07:34:14;;;;;;;7.82;7.07;;;26.60;77.50;;;;;;5043112;28;20229;-78
2022/06/22 07:36:52;;;;;;;8.20;7.25;;;26.70;77.30;;;;;;5048160;28;20296;-78
2022/06/22 07:39:53;;;;;;;10.52;7.15;;;26.90;77.50;;;;;;5045960;28;20199;-78
2022/06/22 07:42:20;;;;;;;8.90;8.15;;;27.00;76.70;;;;;;5022612;28;20204;-78
2022/06/22 07:44:46;;;;;;;9.57;8.60;;;27.00;76.60;;;;;;5005487;28;20207;-78
2022/06/22 07:47:23;;;;;;;13.00;10.05;;;27.10;76.60;;;;;;5022695;28;20192;-78
2022/06/22 07:50:01;;;;;;;14.25;9.65;;;27.10;75.10;;;;;;5022207;28;20330;-78
2022/06/22 07:52:37;;;;;;;19.05;11.13;;;27.10;75.50;;;;;;5022130;28;20640;-79
2022/06/22 07:55:31;;;;;;;11.43;10.18;;;27.20;74.50;;;;;;5022723;28;20188;-78
2022/06/22 07:58:17;;;;;;;11.82;9.85;;;27.20;74.50;;;;;;5001540;28;20314;-78
2022/06/22 08:00:46;;;;;;;11.07;9.93;;;27.30;74.50;;;;;;5017827;28;20230;-77
2022/06/22 08:03:31;;;;;;;12.05;10.80;;;27.40;73.80;;;;;;5024612;28;20280;-78
2022/06/22 08:06:02;;;;;;;12.48;10.45;;;27.40;73.70;;;;;;5004691;28;20192;-78
2022/06/22 08:08:33;;;;;;;11.52;10.20;;;27.60;74.10;;;;;;5029793;28;20241;-78
2022/06/22 08:11:10;;;;;;;11.32;9.82;;;27.80;73.60;;;;;;5028976;28;20192;-78
2022/06/22 08:13:59;;;;;;;14.52;10.35;;;27.90;73.60;;;;;;5008767;28;20779;-78
2022/06/22 08:16:40;;;;;;;11.98;9.80;;;28.00;73.60;;;;;;5024541;28;20255;-77
2022/06/22 08:19:07;;;;;;;11.32;9.50;;;28.20;73.40;;;;;;5047853;28;20191;-77
2022/06/22 08:21:38;;;;;;;11.25;10.25;;;28.30;72.10;;;;;;5048538;28;20190;-77
2022/06/22 08:24:06;;;;;;;12.32;10.45;;;28.30;71.80;;;;;;5054105;28;20194;-78
2022/06/22 08:26:32;;;;;;;10.70;9.80;;;28.30;72.20;;;;;;5059449;28;20570;-79
2022/06/22 08:29:00;;;;;;;11.30;9.38;;;28.40;72.40;;;;;;5053177;28;20712;-78
2022/06/22 08:31:31;;;;;;;10.23;9.23;;;28.50;72.20;;;;;;5053500;28;20909;-78
2022/06/22 08:34:03;;;;;;;11.25;9.07;;;28.50;71.40;;;;;;5049207;28;20214;-78
2022/06/22 08:36:38;;;;;;;11.35;10.10;;;28.30;71.50;;;;;;5048439;28;20233;-78
2022/06/22 08:39:04;;;;;;;11.43;9.65;;;28.30;71.80;;;;;;5046785;28;20688;-78
2022/06/22 08:41:41;;;;;;;10.48;9.32;;;28.30;71.70;;;;;;5045597;28;20179;-79
2022/06/22 08:44:26;;;;;;;10.70;8.65;;;28.30;72.10;;;;;;5051961;28;20198;-79
2022/06/22 08:47:24;;;;;;;9.38;8.55;;;28.30;71.10;;;;;;5052330;28;20187;-79
2022/06/22 08:50:05;;;;;;;10.02;8.57;;;28.20;71.60;;;;;;5007760;28;20185;-78
2022/06/22 08:52:49;;;;;;;9.38;8.40;;;28.30;71.70;;;;;;4985396;28;20204;-79
2022/06/22 08:55:17;;;;;;;12.05;7.57;;;28.30;71.30;;;;;;5007033;28;20287;-79
2022/06/22 08:58:04;;;;;;;9.38;8.00;;;28.20;70.00;;;;;;5001438;28;21214;-78
2022/06/22 09:00:49;;;;;;;8.38;7.60;;;28.20;70.30;;;;;;4999981;28;20566;-79
2022/06/22 09:03:35;;;;;;;7.50;6.95;;;28.30;69.80;;;;;;5010487;28;20187;-79
2022/06/22 09:06:24;;;;;;;7.43;6.78;;;28.30;69.00;;;;;;5008849;28;20839;-79
2022/06/22 09:09:11;;;;;;;9.82;6.82;;;28.30;69.40;;;;;;4992537;28;20732;-79
2022/06/22 09:12:01;;;;;;;7.63;6.85;;;28.10;69.60;;;;;;5007787;28;20517;-78
2022/06/22 09:14:43;;;;;;;7.30;6.72;;;28.10;70.20;;;;;;5009666;28;20196;-78
2022/06/22 09:17:24;;;;;;;7.97;6.35;;;28.30;70.60;;;;;;5010371;28;20230;-79
2022/06/22 09:19:58;;;;;;;8.15;7.20;;;28.30;69.60;;;;;;5006431;28;20216;-79
2022/06/22 09:22:43;;;;;;;6.88;6.22;;;28.30;69.80;;;;;;5002678;28;20383;-79
2022/06/22 09:25:08;;;;;;;8.00;7.40;;;28.20;69.70;;;;;;5011823;28;20207;-80
2022/06/22 09:27:48;;;;;;;7.97;7.13;;;28.20;70.20;;;;;;5051267;28;20179;-80
2022/06/22 09:30:25;;;;;;;8.80;7.97;;;28.30;70.10;;;;;;5052815;28;20629;-80
2022/06/22 09:33:06;;;;;;;7.43;6.88;;;28.40;69.60;;;;;;5047831;28;20182;-78
2022/06/22 09:35:57;;;;;;;7.60;6.70;;;28.40;69.00;;;;;;5038736;28;20234;-80
2022/06/22 09:38:26;;;;;;;10.27;7.32;;;28.40;68.60;;;;;;5044708;28;20781;-80
2022/06/22 09:41:06;;;;;;;8.02;5.95;;;28.40;68.90;;;;;;5048919;28;20184;-79
2022/06/22 09:43:54;;;;;;;6.75;6.05;;;28.40;67.60;;;;;;5048931;28;20188;-79
2022/06/22 09:46:38;;;;;;;6.75;5.88;;;28.60;67.80;;;;;;5053786;28;20179;-79
2022/06/22 09:49:38;;;;;;;9.13;5.32;;;28.70;67.60;;;;;;5048855;28;20616;-80
2022/06/22 09:52:14;;;;;;;9.27;5.63;;;28.70;67.10;;;;;;5043124;28;20655;-80
2022/06/22 09:58:11;;;;;;;5.68;5.15;;;29.00;66.90;;;;;;5043496;28;20228;-80
2022/06/22 10:00:44;;;;;;;8.95;5.45;;;29.00;66.30;;;;;;5048222;28;20508;-80
2022/06/22 10:03:47;;;;;;;5.93;5.32;;;29.20;66.50;;;;;;5043880;28;20185;-80
2022/06/22 10:06:19;;;;;;;5.20;4.93;;;29.20;66.30;;;;;;5043629;28;20202;-80
2022/06/22 10:08:52;;;;;;;6.20;5.53;;;29.20;67.00;;;;;;5050588;28;20187;-79
2022/06/22 10:12:03;;;;;;;5.57;5.22;;;29.30;66.90;;;;;;5049077;28;20176;-81
2022/06/22 10:14:46;;;;;;;7.07;6.07;;;29.50;67.20;;;;;;5057318;28;20214;-80
2022/06/22 10:17:53;;;;;;;6.28;5.78;;;29.80;67.40;;;;;;5056663;28;20225;-79
2022/06/22 10:20:22;;;;;;;6.30;5.95;;;30.10;67.20;;;;;;5057919;28;20262;-79
2022/06/22 10:23:00;;;;;;;5.45;5.18;;;30.30;67.00;;;;;;5059511;28;20618;-79
2022/06/22 10:25:44;;;;;;;8.45;6.07;;;30.60;67.00;;;;;;5039105;28;20222;-79
2022/06/22 10:28:29;;;;;;;17.08;6.40;;;30.80;66.40;;;;;;5051384;28;20504;-79
2022/06/22 10:31:37;;;;;;;7.28;6.63;;;31.10;66.00;;;;;;5053986;28;20535;-79
2022/06/22 10:34:17;;;;;;;5.97;5.53;;;31.40;64.70;;;;;;5053122;28;20186;-79
2022/06/22 10:37:02;;;;;;;8.07;6.38;;;31.60;64.00;;;;;;5055877;28;20252;-79
2022/06/22 10:39:30;;;;;;;6.03;5.60;;;31.70;64.60;;;;;;5056403;28;20206;-78
2022/06/22 10:45:20;;;;;;;7.25;6.38;;;31.90;63.50;;;;;;5056891;28;20311;-78
2022/06/22 10:48:11;;;;;;;6.10;5.70;;;32.00;63.20;;;;;;5056339;28;20186;-79
2022/06/22 10:51:19;;;;;;;6.47;5.88;;;32.10;63.30;;;;;;5052404;28;20203;-77
2022/06/22 10:54:19;;;;;;;6.47;6.05;;;32.30;62.70;;;;;;5047707;28;20664;-78
2022/06/22 10:57:39;;;;;;;7.35;6.80;;;32.60;63.10;;;;;;5059292;28;20220;-78
2022/06/22 11:00:27;;;;;;;9.25;5.70;;;32.90;62.30;;;;;;4976852;28;20185;-78
2022/06/22 11:03:41;;;;;;;7.18;5.90;;;33.30;60.90;;;;;;4979049;28;20255;-79
2022/06/22 11:06:14;;;;;;;7.57;6.05;;;33.60;62.00;;;;;;4906531;29;20206;-79
2022/06/22 11:09:06;;;;;;;6.40;5.97;;;33.90;61.20;;;;;;4907209;29;20285;-79
2022/06/22 11:11:35;;;;;;;6.85;6.32;;;34.20;60.90;;;;;;4892788;29;20227;-79
2022/06/22 11:14:21;;;;;;;6.68;6.18;;;34.30;60.40;;;;;;4888533;29;20244;-78
2022/06/22 11:17:08;;;;;;;6.68;6.07;;;34.40;60.00;;;;;;4879713;29;20692;-77
2022/06/22 11:19:34;;;;;;;6.72;5.47;;;34.60;59.30;;;;;;4893116;29;20223;-78
2022/06/22 11:22:21;;;;;;;6.50;6.05;;;34.70;60.00;;;;;;4890500;29;20204;-79
2022/06/22 11:30:48;;;;;;;6.75;6.25;;;34.70;59.00;;;;;;4887939;29;20207;-78
2022/06/22 11:31:55;;;;;;;6.82;6.25;;;33.20;60.40;;;;;;4858658;29;20732;-78
2022/06/22 11:34:32;;;;;;;6.55;5.95;;;32.80;61.70;;;;;;4866797;29;20270;-78
2022/06/22 11:37:20;;;;;;;6.85;6.07;;;32.10;63.50;;;;;;4940777;28;20232;-77
2022/06/22 11:40:17;;;;;;;6.93;6.32;;;31.40;63.60;;;;;;5004467;28;20725;-78
2022/06/22 11:43:02;;;;;;;6.70;6.05;;;30.80;64.30;;;;;;5006763;28;20287;-78
2022/06/22 11:45:54;;;;;;;12.18;6.40;;;30.30;64.90;;;;;;5006546;28;20200;-78
2022/06/22 11:48:35;;;;;;;6.80;6.30;;;30.00;66.10;;;;;;5009820;28;20187;-77
2022/06/22 11:51:31;;;;;;;7.38;6.38;;;29.90;66.50;;;;;;5036078;28;20699;-77
2022/06/22 11:54:17;;;;;;;11.30;6.63;;;29.80;66.90;;;;;;5050938;28;20278;-77
2022/06/22 11:57:06;;;;;;;6.55;6.00;;;30.00;66.90;;;;;;5054540;28;20247;-77
2022/06/22 11:59:51;;;;;;;6.50;6.10;;;30.40;66.00;;;;;;5045847;28;20658;-77
2022/06/22 12:02:29;;;;;;;6.97;6.47;;;30.60;65.60;;;;;;5046370;28;20213;-78
2022/06/22 12:05:17;;;;;;;7.10;6.57;;;30.70;65.10;;;;;;5044962;28;20269;-78
2022/06/22 12:08:03;;;;;;;6.90;6.50;;;31.00;65.10;;;;;;5047584;28;20194;-78
2022/06/22 12:10:32;;;;;;;7.35;6.10;;;31.20;65.00;;;;;;5046426;28;20192;-77
2022/06/22 12:13:24;;;;;;;11.63;7.13;;;31.30;65.00;;;;;;5052016;28;20179;-77
2022/06/22 12:16:26;;;;;;;6.93;6.45;;;31.50;63.80;;;;;;4998982;28;20218;-78
2022/06/22 12:19:18;;;;;;;7.60;6.35;;;31.80;63.80;;;;;;4935882;28;20665;-77
2022/06/22 12:21:50;;;;;;;6.57;6.28;;;32.20;63.10;;;;;;4945424;28;20199;-77
2022/06/22 12:24:21;;;;;;;7.72;7.13;;;32.40;63.40;;;;;;4949164;28;20194;-77
2022/06/22 12:27:02;;;;;;;8.13;6.70;;;32.70;61.80;;;;;;4945473;28;20585;-80
2022/06/22 12:29:37;;;;;;;8.25;6.40;;;33.20;60.20;;;;;;4951236;29;20206;-76
2022/06/22 12:32:29;;;;;;;7.47;6.82;;;33.50;59.80;;;;;;4963224;28;20599;-76
2022/06/22 12:35:13;;;;;;;8.40;6.60;;;33.80;58.80;;;;;;4960737;29;20206;-77
2022/06/22 12:37:54;;;;;;;7.57;6.88;;;33.90;59.40;;;;;;4971194;28;20206;-76
2022/06/22 12:40:26;;;;;;;7.03;6.35;;;34.00;60.20;;;;;;4954682;29;20295;-77
2022/06/22 12:42:54;;;;;;;7.45;6.85;;;33.90;59.50;;;;;;4970903;28;20203;-76
2022/06/22 12:45:54;;;;;;;6.25;5.95;;;33.60;60.10;;;;;;4954292;28;21309;-76
2022/06/22 12:48:53;;;;;;;16.45;7.20;;;33.50;60.70;;;;;;4949974;29;20726;-76
2022/06/22 12:51:39;;;;;;;7.88;6.80;;;33.70;60.40;;;;;;4947111;29;20259;-74
2022/06/22 12:54:15;;;;;;;7.03;6.60;;;33.80;60.20;;;;;;4994031;28;20197;-76
2022/06/22 12:56:48;;;;;;;7.18;6.63;;;34.10;60.40;;;;;;5050454;28;20225;-75
2022/06/22 12:59:44;;;;;;;8.18;7.47;;;34.30;60.50;;;;;;5044855;28;20189;-76
2022/06/22 13:02:15;;;;;;;7.60;6.93;;;34.60;58.70;;;;;;5021640;28;20288;-76
2022/06/22 13:04:44;;;;;;;7.60;6.85;;;34.60;59.00;;;;;;5021480;28;20362;-75
2022/06/22 13:07:12;;;;;;;6.43;5.95;;;34.60;58.80;;;;;;5017006;28;20200;-74
2022/06/22 13:09:39;;;;;;;6.88;6.38;;;34.60;58.50;;;;;;5019530;28;20219;-75
2022/06/22 13:12:40;;;;;;;7.18;5.95;;;34.40;57.60;;;;;;5015240;28;20636;-75
2022/06/22 13:15:12;;;;;;;6.90;6.30;;;34.10;57.70;;;;;;5018866;28;20217;-75
2022/06/22 13:17:47;;;;;;;6.65;5.97;;;33.90;57.90;;;;;;5005019;28;20804;-76
2022/06/22 13:20:24;;;;;;;9.50;6.60;;;33.50;59.60;;;;;;5018792;28;20206;-75
2022/06/22 13:23:02;;;;;;;7.32;6.72;;;33.00;59.50;;;;;;5018175;28;20194;-76
2022/06/22 13:26:01;;;;;;;7.30;6.78;;;32.70;60.80;;;;;;5037628;28;20191;-75
2022/06/22 13:29:01;;;;;;;7.53;6.78;;;32.60;60.80;;;;;;5023737;28;20190;-75
2022/06/22 13:31:31;;;;;;;7.60;7.07;;;32.70;60.90;;;;;;4977982;28;20201;-76
2022/06/22 13:34:07;;;;;;;11.35;7.70;;;32.60;61.40;;;;;;4980522;28;22115;-75
2022/06/22 13:36:39;;;;;;;9.43;8.45;;;32.70;61.70;;;;;;4981924;28;20220;-75
2022/06/22 13:39:53;;;;;;;8.38;7.57;;;32.80;61.80;;;;;;5002087;28;20678;-76
2022/06/22 13:42:35;;;;;;;10.75;7.43;;;33.00;61.50;;;;;;5007098;28;20270;-75
2022/06/22 13:45:28;;;;;;;12.10;7.93;;;33.20;61.50;;;;;;5004691;28;20192;-75
2022/06/22 13:48:00;;;;;;;8.90;7.35;;;33.60;61.10;;;;;;4973692;28;20198;-76
2022/06/22 13:51:18;;;;;;;8.95;7.68;;;33.70;61.30;;;;;;4961890;28;20203;-75
2022/06/22 13:54:26;;;;;;;9.70;7.43;;;34.00;59.80;;;;;;4887765;29;20609;-76
2022/06/22 13:57:43;;;;;;;8.27;6.72;;;34.00;59.60;;;;;;4889533;29;20813;-76
2022/06/22 14:00:32;;;;;;;7.50;7.00;;;33.60;60.10;;;;;;4838840;29;20668;-75
2022/06/22 14:03:17;;;;;;;8.55;7.53;;;33.40;60.10;;;;;;4852816;29;20190;-75
2022/06/22 14:05:50;;;;;;;8.13;7.10;;;33.60;60.40;;;;;;4852323;29;20197;-75
2022/06/22 14:08:25;;;;;;;8.70;7.43;;;33.80;60.60;;;;;;4858506;29;20185;-77